sensor_id;sensor_type;location;lat;lon;timestamp;P1;durP1;ratioP1;P2;durP2;ratioP2
13879;SDS011;7010;48.200;16.332;2023-02-26T00:01:49;1.55;;;1.42;;
13879;SDS011;7010;48.200;16.332;2023-02-26T00:04:29;1.55;;;1.45;;
13879;SDS011;7010;48.200;16.332;2023-02-26T00:06:58;1.85;;;1.75;;
13879;SDS011;7010;48.200;16.332;2023-02-26T00:09:26;1.98;;;1.52;;
13879;SDS011;7010;48.200;16.332;2023-02-26T00:11:55;1.77;;;1.67;;
13879;SDS011;7010;48.200;16.332;2023-02-26T00:14:24;1.23;;;1.20;;
13879;SDS011;7010;48.200;16.332;2023-02-26T00:16:56;2.03;;;1.83;;
13879;SDS011;7010;48.200;16.332;2023-02-26T00:19:38;2.08;;;1.65;;
13879;SDS011;7010;48.200;16.332;2023-02-26T00:22:07;1.55;;;1.45;;
13879;SDS011;7010;48.200;16.332;2023-02-26T00:24:36;2.35;;;1.85;;
13879;SDS011;7010;48.200;16.332;2023-02-26T00:27:04;1.50;;;1.40;;
13879;SDS011;7010;48.200;16.332;2023-02-26T00:29:35;3.65;;;1.70;;
13879;SDS011;7010;48.200;16.332;2023-02-26T00:32:04;2.20;;;1.75;;
13879;SDS011;7010;48.200;16.332;2023-02-26T00:34:33;1.45;;;1.38;;
13879;SDS011;7010;48.200;16.332;2023-02-26T00:37:07;1.40;;;1.40;;
13879;SDS011;7010;48.200;16.332;2023-02-26T00:39:46;2.00;;;1.80;;
13879;SDS011;7010;48.200;16.332;2023-02-26T00:42:21;1.85;;;1.75;;
13879;SDS011;7010;48.200;16.332;2023-02-26T00:44:50;2.17;;;1.80;;
13879;SDS011;7010;48.200;16.332;2023-02-26T00:47:21;1.25;;;1.25;;
13879;SDS011;7010;48.200;16.332;2023-02-26T00:49:58;2.00;;;1.80;;
13879;SDS011;7010;48.200;16.332;2023-02-26T00:52:37;1.20;;;1.20;;
13879;SDS011;7010;48.200;16.332;2023-02-26T00:55:12;1.73;;;1.63;;
13879;SDS011;7010;48.200;16.332;2023-02-26T00:57:40;2.00;;;1.80;;
13879;SDS011;7010;48.200;16.332;2023-02-26T01:00:09;1.67;;;1.58;;
13879;SDS011;7010;48.200;16.332;2023-02-26T01:02:41;1.85;;;1.75;;
13879;SDS011;7010;48.200;16.332;2023-02-26T01:05:13;1.98;;;1.80;;
13879;SDS011;7010;48.200;16.332;2023-02-26T01:07:46;1.35;;;1.30;;
13879;SDS011;7010;48.200;16.332;2023-02-26T01:10:20;1.55;;;1.40;;
13879;SDS011;7010;48.200;16.332;2023-02-26T01:12:49;1.50;;;1.42;;
13879;SDS011;7010;48.200;16.332;2023-02-26T01:15:18;2.45;;;2.13;;
13879;SDS011;7010;48.200;16.332;2023-02-26T01:17:49;1.70;;;1.60;;
13879;SDS011;7010;48.200;16.332;2023-02-26T01:20:22;1.45;;;1.35;;
13879;SDS011;7010;48.200;16.332;2023-02-26T01:22:56;1.20;;;1.20;;
13879;SDS011;7010;48.200;16.332;2023-02-26T01:25:31;1.02;;;1.02;;
13879;SDS011;7010;48.200;16.332;2023-02-26T01:28:06;1.20;;;1.20;;
13879;SDS011;7010;48.200;16.332;2023-02-26T01:30:35;1.40;;;1.30;;
13879;SDS011;7010;48.200;16.332;2023-02-26T01:33:06;1.02;;;1.02;;
13879;SDS011;7010;48.200;16.332;2023-02-26T01:35:42;2.17;;;1.92;;
13879;SDS011;7010;48.200;16.332;2023-02-26T01:38:20;2.08;;;1.98;;
13879;SDS011;7010;48.200;16.332;2023-02-26T01:41:02;1.15;;;1.15;;
13879;SDS011;7010;48.200;16.332;2023-02-26T01:43:53;1.40;;;1.30;;
13879;SDS011;7010;48.200;16.332;2023-02-26T01:46:31;1.77;;;1.67;;
13879;SDS011;7010;48.200;16.332;2023-02-26T01:49:03;1.55;;;1.45;;
13879;SDS011;7010;48.200;16.332;2023-02-26T01:51:43;1.55;;;1.42;;
13879;SDS011;7010;48.200;16.332;2023-02-26T01:54:18;1.52;;;1.42;;
13879;SDS011;7010;48.200;16.332;2023-02-26T01:56:48;1.63;;;1.52;;
13879;SDS011;7010;48.200;16.332;2023-02-26T01:59:19;1.40;;;1.30;;
13879;SDS011;7010;48.200;16.332;2023-02-26T02:01:51;2.13;;;1.50;;
13879;SDS011;7010;48.200;16.332;2023-02-26T02:04:20;1.38;;;1.27;;
13879;SDS011;7010;48.200;16.332;2023-02-26T02:06:50;1.40;;;1.30;;
13879;SDS011;7010;48.200;16.332;2023-02-26T02:09:25;1.40;;;1.30;;
13879;SDS011;7010;48.200;16.332;2023-02-26T02:14:53;1.67;;;1.58;;
13879;SDS011;7010;48.200;16.332;2023-02-26T02:17:33;0.90;;;0.90;;
13879;SDS011;7010;48.200;16.332;2023-02-26T02:20:23;1.52;;;1.42;;
13879;SDS011;7010;48.200;16.332;2023-02-26T02:23:12;1.50;;;1.42;;
13879;SDS011;7010;48.200;16.332;2023-02-26T02:25:52;1.30;;;1.20;;
13879;SDS011;7010;48.200;16.332;2023-02-26T02:28:35;1.20;;;1.20;;
13879;SDS011;7010;48.200;16.332;2023-02-26T02:31:13;2.17;;;1.87;;
13879;SDS011;7010;48.200;16.332;2023-02-26T02:33:46;0.98;;;0.98;;
13879;SDS011;7010;48.200;16.332;2023-02-26T02:36:19;2.10;;;1.90;;
13879;SDS011;7010;48.200;16.332;2023-02-26T02:38:53;1.07;;;1.07;;
13879;SDS011;7010;48.200;16.332;2023-02-26T02:41:25;1.50;;;1.40;;
13879;SDS011;7010;48.200;16.332;2023-02-26T02:43:57;1.08;;;1.08;;
13879;SDS011;7010;48.200;16.332;2023-02-26T02:46:31;1.27;;;1.23;;
13879;SDS011;7010;48.200;16.332;2023-02-26T02:49:04;1.48;;;1.38;;
13879;SDS011;7010;48.200;16.332;2023-02-26T02:51:36;1.00;;;1.00;;
13879;SDS011;7010;48.200;16.332;2023-02-26T02:54:10;1.50;;;1.40;;
13879;SDS011;7010;48.200;16.332;2023-02-26T02:56:43;1.17;;;1.17;;
13879;SDS011;7010;48.200;16.332;2023-02-26T02:59:17;1.47;;;1.37;;
13879;SDS011;7010;48.200;16.332;2023-02-26T03:01:56;1.70;;;1.20;;
13879;SDS011;7010;48.200;16.332;2023-02-26T03:04:31;1.00;;;1.00;;
13879;SDS011;7010;48.200;16.332;2023-02-26T03:06:59;1.95;;;1.85;;
13879;SDS011;7010;48.200;16.332;2023-02-26T03:09:31;1.50;;;1.40;;
13879;SDS011;7010;48.200;16.332;2023-02-26T03:11:59;0.93;;;0.93;;
13879;SDS011;7010;48.200;16.332;2023-02-26T03:14:28;2.75;;;1.63;;
13879;SDS011;7010;48.200;16.332;2023-02-26T03:17:04;1.43;;;1.33;;
13879;SDS011;7010;48.200;16.332;2023-02-26T03:19:40;1.48;;;1.38;;
13879;SDS011;7010;48.200;16.332;2023-02-26T03:22:21;2.45;;;1.30;;
13879;SDS011;7010;48.200;16.332;2023-02-26T03:24:55;2.58;;;2.00;;
13879;SDS011;7010;48.200;16.332;2023-02-26T03:27:29;1.23;;;1.23;;
13879;SDS011;7010;48.200;16.332;2023-02-26T03:30:03;1.80;;;1.63;;
13879;SDS011;7010;48.200;16.332;2023-02-26T03:32:40;1.33;;;1.15;;
13879;SDS011;7010;48.200;16.332;2023-02-26T03:35:17;0.95;;;0.95;;
13879;SDS011;7010;48.200;16.332;2023-02-26T03:37:48;1.23;;;1.17;;
13879;SDS011;7010;48.200;16.332;2023-02-26T03:40:21;1.20;;;1.20;;
13879;SDS011;7010;48.200;16.332;2023-02-26T03:42:56;1.58;;;1.48;;
13879;SDS011;7010;48.200;16.332;2023-02-26T03:45:29;1.43;;;1.40;;
13879;SDS011;7010;48.200;16.332;2023-02-26T03:48:01;1.50;;;1.40;;
13879;SDS011;7010;48.200;16.332;2023-02-26T03:50:32;1.17;;;1.17;;
13879;SDS011;7010;48.200;16.332;2023-02-26T03:53:08;1.45;;;1.40;;
13879;SDS011;7010;48.200;16.332;2023-02-26T03:55:41;1.03;;;1.00;;
13879;SDS011;7010;48.200;16.332;2023-02-26T03:58:16;1.48;;;1.38;;
13879;SDS011;7010;48.200;16.332;2023-02-26T04:00:46;1.70;;;1.60;;
13879;SDS011;7010;48.200;16.332;2023-02-26T04:03:23;1.63;;;1.52;;
13879;SDS011;7010;48.200;16.332;2023-02-26T04:05:56;1.42;;;1.33;;
13879;SDS011;7010;48.200;16.332;2023-02-26T04:08:26;1.73;;;1.63;;
13879;SDS011;7010;48.200;16.332;2023-02-26T04:10:56;1.70;;;1.60;;
13879;SDS011;7010;48.200;16.332;2023-02-26T04:13:26;1.03;;;1.03;;
13879;SDS011;7010;48.200;16.332;2023-02-26T04:15:57;2.03;;;1.73;;
13879;SDS011;7010;48.200;16.332;2023-02-26T04:18:27;1.60;;;1.50;;
13879;SDS011;7010;48.200;16.332;2023-02-26T04:20:55;1.77;;;1.67;;
13879;SDS011;7010;48.200;16.332;2023-02-26T04:23:23;1.55;;;1.45;;
13879;SDS011;7010;48.200;16.332;2023-02-26T04:25:52;2.97;;;1.80;;
13879;SDS011;7010;48.200;16.332;2023-02-26T04:28:20;1.10;;;1.10;;
13879;SDS011;7010;48.200;16.332;2023-02-26T04:30:49;2.00;;;1.73;;
13879;SDS011;7010;48.200;16.332;2023-02-26T04:33:17;1.50;;;1.40;;
13879;SDS011;7010;48.200;16.332;2023-02-26T04:35:47;1.20;;;1.20;;
13879;SDS011;7010;48.200;16.332;2023-02-26T04:38:16;2.10;;;1.90;;
13879;SDS011;7010;48.200;16.332;2023-02-26T04:40:44;1.88;;;1.73;;
13879;SDS011;7010;48.200;16.332;2023-02-26T04:43:13;1.73;;;1.63;;
13879;SDS011;7010;48.200;16.332;2023-02-26T04:45:43;3.72;;;2.38;;
13879;SDS011;7010;48.200;16.332;2023-02-26T04:48:12;1.80;;;1.70;;
13879;SDS011;7010;48.200;16.332;2023-02-26T04:50:40;1.60;;;1.50;;
13879;SDS011;7010;48.200;16.332;2023-02-26T04:53:10;1.73;;;1.63;;
13879;SDS011;7010;48.200;16.332;2023-02-26T04:55:38;1.45;;;1.38;;
13879;SDS011;7010;48.200;16.332;2023-02-26T04:58:07;1.88;;;1.77;;
13879;SDS011;7010;48.200;16.332;2023-02-26T05:00:35;2.27;;;2.17;;
13879;SDS011;7010;48.200;16.332;2023-02-26T05:03:04;1.48;;;1.40;;
13879;SDS011;7010;48.200;16.332;2023-02-26T05:05:32;1.70;;;1.60;;
13879;SDS011;7010;48.200;16.332;2023-02-26T05:08:01;1.80;;;1.70;;
13879;SDS011;7010;48.200;16.332;2023-02-26T05:10:30;2.03;;;1.87;;
13879;SDS011;7010;48.200;16.332;2023-02-26T05:12:59;1.87;;;1.77;;
13879;SDS011;7010;48.200;16.332;2023-02-26T05:15:27;1.97;;;1.87;;
13879;SDS011;7010;48.200;16.332;2023-02-26T05:17:55;2.78;;;2.42;;
13879;SDS011;7010;48.200;16.332;2023-02-26T05:20:24;2.13;;;2.03;;
13879;SDS011;7010;48.200;16.332;2023-02-26T05:22:52;2.50;;;2.30;;
13879;SDS011;7010;48.200;16.332;2023-02-26T05:25:20;2.05;;;1.95;;
13879;SDS011;7010;48.200;16.332;2023-02-26T05:27:50;2.13;;;2.03;;
13879;SDS011;7010;48.200;16.332;2023-02-26T05:30:19;2.07;;;1.93;;
13879;SDS011;7010;48.200;16.332;2023-02-26T05:32:47;1.93;;;1.73;;
13879;SDS011;7010;48.200;16.332;2023-02-26T05:35:15;2.55;;;2.30;;
13879;SDS011;7010;48.200;16.332;2023-02-26T05:37:44;2.30;;;2.10;;
13879;SDS011;7010;48.200;16.332;2023-02-26T05:40:12;2.72;;;2.38;;
13879;SDS011;7010;48.200;16.332;2023-02-26T05:42:40;3.03;;;2.73;;
13879;SDS011;7010;48.200;16.332;2023-02-26T05:45:10;2.70;;;2.50;;
13879;SDS011;7010;48.200;16.332;2023-02-26T05:47:39;2.50;;;2.30;;
13879;SDS011;7010;48.200;16.332;2023-02-26T05:50:08;2.90;;;2.70;;
13879;SDS011;7010;48.200;16.332;2023-02-26T05:52:38;2.87;;;2.67;;
13879;SDS011;7010;48.200;16.332;2023-02-26T05:55:07;4.13;;;2.90;;
13879;SDS011;7010;48.200;16.332;2023-02-26T05:57:36;2.83;;;2.63;;
13879;SDS011;7010;48.200;16.332;2023-02-26T06:00:05;3.10;;;2.90;;
13879;SDS011;7010;48.200;16.332;2023-02-26T06:02:36;2.87;;;2.60;;
13879;SDS011;7010;48.200;16.332;2023-02-26T06:05:05;3.47;;;2.67;;
13879;SDS011;7010;48.200;16.332;2023-02-26T06:07:35;3.50;;;3.20;;
13879;SDS011;7010;48.200;16.332;2023-02-26T06:10:03;3.60;;;3.30;;
13879;SDS011;7010;48.200;16.332;2023-02-26T06:12:33;2.80;;;2.60;;
13879;SDS011;7010;48.200;16.332;2023-02-26T06:15:02;2.60;;;2.40;;
13879;SDS011;7010;48.200;16.332;2023-02-26T06:17:31;3.10;;;2.90;;
13879;SDS011;7010;48.200;16.332;2023-02-26T06:20:01;3.10;;;2.80;;
13879;SDS011;7010;48.200;16.332;2023-02-26T06:22:30;4.80;;;3.63;;
13879;SDS011;7010;48.200;16.332;2023-02-26T06:24:58;3.13;;;2.92;;
13879;SDS011;7010;48.200;16.332;2023-02-26T06:27:26;3.60;;;3.20;;
13879;SDS011;7010;48.200;16.332;2023-02-26T06:29:55;3.57;;;3.27;;
13879;SDS011;7010;48.200;16.332;2023-02-26T06:32:23;3.77;;;3.47;;
13879;SDS011;7010;48.200;16.332;2023-02-26T06:34:55;2.87;;;2.67;;
13879;SDS011;7010;48.200;16.332;2023-02-26T06:37:25;3.60;;;3.30;;
13879;SDS011;7010;48.200;16.332;2023-02-26T06:39:54;3.67;;;3.37;;
13879;SDS011;7010;48.200;16.332;2023-02-26T06:42:22;3.90;;;3.50;;
13879;SDS011;7010;48.200;16.332;2023-02-26T06:44:50;2.97;;;2.77;;
13879;SDS011;7010;48.200;16.332;2023-02-26T06:47:19;3.23;;;2.93;;
13879;SDS011;7010;48.200;16.332;2023-02-26T06:49:48;3.43;;;3.13;;
13879;SDS011;7010;48.200;16.332;2023-02-26T06:52:16;3.00;;;2.80;;
13879;SDS011;7010;48.200;16.332;2023-02-26T06:54:46;3.07;;;2.87;;
13879;SDS011;7010;48.200;16.332;2023-02-26T06:57:15;3.83;;;3.40;;
13879;SDS011;7010;48.200;16.332;2023-02-26T06:59:43;3.23;;;2.93;;
13879;SDS011;7010;48.200;16.332;2023-02-26T07:02:14;4.47;;;3.73;;
13879;SDS011;7010;48.200;16.332;2023-02-26T07:04:44;3.67;;;3.37;;
13879;SDS011;7010;48.200;16.332;2023-02-26T07:07:13;3.30;;;3.03;;
13879;SDS011;7010;48.200;16.332;2023-02-26T07:09:41;3.25;;;2.95;;
13879;SDS011;7010;48.200;16.332;2023-02-26T07:12:12;3.40;;;3.10;;
13879;SDS011;7010;48.200;16.332;2023-02-26T07:14:41;3.80;;;3.22;;
13879;SDS011;7010;48.200;16.332;2023-02-26T07:17:11;3.75;;;3.45;;
13879;SDS011;7010;48.200;16.332;2023-02-26T07:19:46;3.20;;;2.63;;
13879;SDS011;7010;48.200;16.332;2023-02-26T07:22:14;3.00;;;2.78;;
13879;SDS011;7010;48.200;16.332;2023-02-26T07:24:46;3.53;;;3.23;;
13879;SDS011;7010;48.200;16.332;2023-02-26T07:27:16;3.10;;;2.90;;
13879;SDS011;7010;48.200;16.332;2023-02-26T07:29:44;3.13;;;2.83;;
13879;SDS011;7010;48.200;16.332;2023-02-26T07:32:13;2.90;;;2.63;;
13879;SDS011;7010;48.200;16.332;2023-02-26T07:34:41;3.13;;;2.83;;
13879;SDS011;7010;48.200;16.332;2023-02-26T07:37:09;3.60;;;3.30;;
13879;SDS011;7010;48.200;16.332;2023-02-26T07:39:38;4.20;;;3.83;;
13879;SDS011;7010;48.200;16.332;2023-02-26T07:42:06;3.08;;;2.88;;
13879;SDS011;7010;48.200;16.332;2023-02-26T07:44:36;3.10;;;2.90;;
13879;SDS011;7010;48.200;16.332;2023-02-26T07:47:04;3.67;;;3.37;;
13879;SDS011;7010;48.200;16.332;2023-02-26T07:49:32;3.72;;;3.42;;
13879;SDS011;7010;48.200;16.332;2023-02-26T07:52:01;4.25;;;3.28;;
13879;SDS011;7010;48.200;16.332;2023-02-26T07:54:29;2.33;;;2.22;;
13879;SDS011;7010;48.200;16.332;2023-02-26T07:56:58;4.40;;;3.53;;
13879;SDS011;7010;48.200;16.332;2023-02-26T07:59:28;3.53;;;3.20;;
13879;SDS011;7010;48.200;16.332;2023-02-26T08:01:58;3.10;;;2.90;;
13879;SDS011;7010;48.200;16.332;2023-02-26T08:04:26;3.33;;;3.08;;
13879;SDS011;7010;48.200;16.332;2023-02-26T08:06:55;2.33;;;2.13;;
13879;SDS011;7010;48.200;16.332;2023-02-26T08:09:27;3.50;;;3.00;;
13879;SDS011;7010;48.200;16.332;2023-02-26T08:11:56;2.42;;;2.22;;
13879;SDS011;7010;48.200;16.332;2023-02-26T08:14:24;2.35;;;2.20;;
13879;SDS011;7010;48.200;16.332;2023-02-26T08:16:52;2.47;;;2.28;;
13879;SDS011;7010;48.200;16.332;2023-02-26T08:19:22;2.38;;;2.17;;
13879;SDS011;7010;48.200;16.332;2023-02-26T08:21:50;2.17;;;2.00;;
13879;SDS011;7010;48.200;16.332;2023-02-26T08:24:20;4.72;;;2.58;;
13879;SDS011;7010;48.200;16.332;2023-02-26T08:26:49;2.45;;;2.28;;
13879;SDS011;7010;48.200;16.332;2023-02-26T08:29:17;2.30;;;2.10;;
13879;SDS011;7010;48.200;16.332;2023-02-26T08:31:45;5.93;;;2.67;;
13879;SDS011;7010;48.200;16.332;2023-02-26T08:34:14;2.92;;;2.10;;
13879;SDS011;7010;48.200;16.332;2023-02-26T08:36:44;1.73;;;1.63;;
13879;SDS011;7010;48.200;16.332;2023-02-26T08:39:12;1.73;;;1.63;;
13879;SDS011;7010;48.200;16.332;2023-02-26T08:41:40;2.35;;;2.15;;
13879;SDS011;7010;48.200;16.332;2023-02-26T08:44:08;1.60;;;1.50;;
13879;SDS011;7010;48.200;16.332;2023-02-26T08:46:37;2.38;;;1.95;;
13879;SDS011;7010;48.200;16.332;2023-02-26T08:49:05;2.35;;;2.15;;
13879;SDS011;7010;48.200;16.332;2023-02-26T08:51:33;2.17;;;1.85;;
13879;SDS011;7010;48.200;16.332;2023-02-26T08:54:03;1.65;;;1.55;;
13879;SDS011;7010;48.200;16.332;2023-02-26T08:56:32;2.28;;;2.08;;
13879;SDS011;7010;48.200;16.332;2023-02-26T08:59:00;2.55;;;1.85;;
13879;SDS011;7010;48.200;16.332;2023-02-26T09:01:29;1.67;;;1.58;;
13879;SDS011;7010;48.200;16.332;2023-02-26T09:03:57;1.80;;;1.70;;
13879;SDS011;7010;48.200;16.332;2023-02-26T09:06:26;1.70;;;1.60;;
13879;SDS011;7010;48.200;16.332;2023-02-26T09:08:54;1.90;;;1.23;;
13879;SDS011;7010;48.200;16.332;2023-02-26T09:11:24;1.17;;;1.17;;
13879;SDS011;7010;48.200;16.332;2023-02-26T09:13:52;1.60;;;1.50;;
13879;SDS011;7010;48.200;16.332;2023-02-26T09:16:21;2.28;;;1.70;;
13879;SDS011;7010;48.200;16.332;2023-02-26T09:18:49;3.53;;;2.38;;
13879;SDS011;7010;48.200;16.332;2023-02-26T09:21:18;1.83;;;1.73;;
13879;SDS011;7010;48.200;16.332;2023-02-26T09:23:46;1.50;;;1.40;;
13879;SDS011;7010;48.200;16.332;2023-02-26T09:26:14;2.65;;;1.42;;
13879;SDS011;7010;48.200;16.332;2023-02-26T09:28:44;0.80;;;0.80;;
13879;SDS011;7010;48.200;16.332;2023-02-26T09:31:12;1.25;;;1.15;;
13879;SDS011;7010;48.200;16.332;2023-02-26T09:33:41;1.15;;;0.98;;
13879;SDS011;7010;48.200;16.332;2023-02-26T09:36:09;2.47;;;1.10;;
13879;SDS011;7010;48.200;16.332;2023-02-26T09:38:37;1.02;;;1.02;;
13879;SDS011;7010;48.200;16.332;2023-02-26T09:41:07;1.25;;;1.15;;
13879;SDS011;7010;48.200;16.332;2023-02-26T09:43:53;11.77;;;1.85;;
13879;SDS011;7010;48.200;16.332;2023-02-26T09:46:47;0.90;;;0.90;;
13879;SDS011;7010;48.200;16.332;2023-02-26T09:49:23;0.73;;;0.73;;
13879;SDS011;7010;48.200;16.332;2023-02-26T09:52:05;1.27;;;1.20;;
13879;SDS011;7010;48.200;16.332;2023-02-26T09:54:45;1.38;;;1.30;;
13879;SDS011;7010;48.200;16.332;2023-02-26T09:57:17;2.05;;;1.52;;
13879;SDS011;7010;48.200;16.332;2023-02-26T09:59:54;1.58;;;1.33;;
13879;SDS011;7010;48.200;16.332;2023-02-26T10:02:27;1.33;;;1.23;;
13879;SDS011;7010;48.200;16.332;2023-02-26T10:05:17;1.25;;;1.23;;
13879;SDS011;7010;48.200;16.332;2023-02-26T10:07:51;1.23;;;1.13;;
13879;SDS011;7010;48.200;16.332;2023-02-26T10:10:27;1.00;;;1.00;;
13879;SDS011;7010;48.200;16.332;2023-02-26T10:13:01;1.75;;;1.50;;
13879;SDS011;7010;48.200;16.332;2023-02-26T10:15:34;1.25;;;1.10;;
13879;SDS011;7010;48.200;16.332;2023-02-26T10:18:07;1.25;;;1.15;;
13879;SDS011;7010;48.200;16.332;2023-02-26T10:20:41;1.67;;;1.58;;
13879;SDS011;7010;48.200;16.332;2023-02-26T10:23:19;0.90;;;0.90;;
13879;SDS011;7010;48.200;16.332;2023-02-26T10:25:51;0.80;;;0.80;;
13879;SDS011;7010;48.200;16.332;2023-02-26T10:28:32;3.67;;;1.45;;
13879;SDS011;7010;48.200;16.332;2023-02-26T10:31:10;1.55;;;1.45;;
13879;SDS011;7010;48.200;16.332;2023-02-26T10:33:45;1.33;;;1.23;;
13879;SDS011;7010;48.200;16.332;2023-02-26T10:36:18;0.90;;;0.90;;
13879;SDS011;7010;48.200;16.332;2023-02-26T10:38:51;1.00;;;1.00;;
13879;SDS011;7010;48.200;16.332;2023-02-26T10:41:26;1.40;;;1.30;;
13879;SDS011;7010;48.200;16.332;2023-02-26T10:43:58;1.20;;;1.13;;
13879;SDS011;7010;48.200;16.332;2023-02-26T10:46:35;1.20;;;1.10;;
13879;SDS011;7010;48.200;16.332;2023-02-26T10:49:31;1.27;;;1.23;;
13879;SDS011;7010;48.200;16.332;2023-02-26T10:52:09;1.30;;;1.20;;
13879;SDS011;7010;48.200;16.332;2023-02-26T10:54:44;1.58;;;1.48;;
13879;SDS011;7010;48.200;16.332;2023-02-26T10:57:22;1.08;;;1.08;;
13879;SDS011;7010;48.200;16.332;2023-02-26T10:59:53;1.20;;;1.20;;
13879;SDS011;7010;48.200;16.332;2023-02-26T11:02:31;1.27;;;1.17;;
13879;SDS011;7010;48.200;16.332;2023-02-26T11:05:03;2.05;;;1.50;;
13879;SDS011;7010;48.200;16.332;2023-02-26T11:07:35;2.95;;;1.10;;
13879;SDS011;7010;48.200;16.332;2023-02-26T11:10:11;1.08;;;1.08;;
13879;SDS011;7010;48.200;16.332;2023-02-26T11:12:42;1.10;;;1.10;;
13879;SDS011;7010;48.200;16.332;2023-02-26T11:15:14;1.48;;;1.38;;
13879;SDS011;7010;48.200;16.332;2023-02-26T11:17:45;1.45;;;1.13;;
13879;SDS011;7010;48.200;16.332;2023-02-26T11:20:17;1.58;;;1.48;;
13879;SDS011;7010;48.200;16.332;2023-02-26T11:22:51;2.50;;;1.35;;
13879;SDS011;7010;48.200;16.332;2023-02-26T11:25:23;1.85;;;1.70;;
13879;SDS011;7010;48.200;16.332;2023-02-26T11:27:56;1.40;;;1.30;;
13879;SDS011;7010;48.200;16.332;2023-02-26T11:30:28;1.10;;;1.00;;
13879;SDS011;7010;48.200;16.332;2023-02-26T11:33:03;1.30;;;1.20;;
13879;SDS011;7010;48.200;16.332;2023-02-26T11:35:40;1.52;;;1.42;;
13879;SDS011;7010;48.200;16.332;2023-02-26T11:38:11;1.42;;;1.33;;
13879;SDS011;7010;48.200;16.332;2023-02-26T11:40:45;1.27;;;1.17;;
13879;SDS011;7010;48.200;16.332;2023-02-26T11:43:16;2.33;;;1.42;;
13879;SDS011;7010;48.200;16.332;2023-02-26T11:45:47;1.95;;;1.85;;
13879;SDS011;7010;48.200;16.332;2023-02-26T11:48:22;1.80;;;1.67;;
13879;SDS011;7010;48.200;16.332;2023-02-26T11:50:55;2.75;;;1.80;;
13879;SDS011;7010;48.200;16.332;2023-02-26T11:53:29;1.30;;;1.27;;
13879;SDS011;7010;48.200;16.332;2023-02-26T11:55:59;0.63;;;0.63;;
13879;SDS011;7010;48.200;16.332;2023-02-26T11:58:29;1.20;;;1.13;;
13879;SDS011;7010;48.200;16.332;2023-02-26T12:01:02;0.90;;;0.90;;
13879;SDS011;7010;48.200;16.332;2023-02-26T12:03:36;2.47;;;1.52;;
13879;SDS011;7010;48.200;16.332;2023-02-26T12:06:07;1.15;;;1.10;;
13879;SDS011;7010;48.200;16.332;2023-02-26T12:08:42;0.98;;;0.90;;
13879;SDS011;7010;48.200;16.332;2023-02-26T12:11:16;0.88;;;0.88;;
13879;SDS011;7010;48.200;16.332;2023-02-26T12:17:22;1.13;;;1.13;;
13879;SDS011;7010;48.200;16.332;2023-02-26T12:20:14;1.25;;;1.10;;
13879;SDS011;7010;48.200;16.332;2023-02-26T12:22:48;1.55;;;1.45;;
13879;SDS011;7010;48.200;16.332;2023-02-26T12:25:38;1.35;;;1.27;;
13879;SDS011;7010;48.200;16.332;2023-02-26T12:37:36;1.45;;;1.35;;
13879;SDS011;7010;48.200;16.332;2023-02-26T12:40:17;1.08;;;1.08;;
13879;SDS011;7010;48.200;16.332;2023-02-26T12:43:08;1.55;;;1.45;;
13879;SDS011;7010;48.200;16.332;2023-02-26T12:45:45;2.05;;;1.95;;
13879;SDS011;7010;48.200;16.332;2023-02-26T12:48:31;2.63;;;2.03;;
13879;SDS011;7010;48.200;16.332;2023-02-26T12:51:25;1.20;;;1.10;;
13879;SDS011;7010;48.200;16.332;2023-02-26T12:54:12;1.85;;;1.70;;
13879;SDS011;7010;48.200;16.332;2023-02-26T12:57:03;4.50;;;2.10;;
13879;SDS011;7010;48.200;16.332;2023-02-26T12:59:55;1.00;;;1.00;;
13879;SDS011;7010;48.200;16.332;2023-02-26T13:06:07;2.92;;;1.70;;
13879;SDS011;7010;48.200;16.332;2023-02-26T13:08:53;2.13;;;1.92;;
13879;SDS011;7010;48.200;16.332;2023-02-26T13:11:34;1.85;;;1.70;;
13879;SDS011;7010;48.200;16.332;2023-02-26T13:14:17;2.08;;;1.48;;
13879;SDS011;7010;48.200;16.332;2023-02-26T13:16:56;1.33;;;1.23;;
13879;SDS011;7010;48.200;16.332;2023-02-26T13:19:33;1.33;;;1.25;;
13879;SDS011;7010;48.200;16.332;2023-02-26T13:22:15;1.20;;;1.10;;
13879;SDS011;7010;48.200;16.332;2023-02-26T13:24:49;0.90;;;0.90;;
13879;SDS011;7010;48.200;16.332;2023-02-26T13:27:25;1.42;;;1.20;;
13879;SDS011;7010;48.200;16.332;2023-02-26T13:30:03;2.88;;;1.88;;
13879;SDS011;7010;48.200;16.332;2023-02-26T13:32:41;1.20;;;1.10;;
13879;SDS011;7010;48.200;16.332;2023-02-26T13:35:17;1.38;;;1.17;;
13879;SDS011;7010;48.200;16.332;2023-02-26T13:37:48;1.55;;;1.45;;
13879;SDS011;7010;48.200;16.332;2023-02-26T13:40:39;1.08;;;1.05;;
13879;SDS011;7010;48.200;16.332;2023-02-26T13:43:23;1.30;;;1.30;;
13879;SDS011;7010;48.200;16.332;2023-02-26T13:46:09;0.80;;;0.80;;
13879;SDS011;7010;48.200;16.332;2023-02-26T13:48:50;0.88;;;0.88;;
13879;SDS011;7010;48.200;16.332;2023-02-26T13:51:27;1.42;;;1.33;;
13879;SDS011;7010;48.200;16.332;2023-02-26T13:54:00;0.65;;;0.65;;
13879;SDS011;7010;48.200;16.332;2023-02-26T13:56:47;0.90;;;0.90;;
13879;SDS011;7010;48.200;16.332;2023-02-26T13:59:34;0.98;;;0.98;;
13879;SDS011;7010;48.200;16.332;2023-02-26T14:05:05;1.40;;;1.30;;
13879;SDS011;7010;48.200;16.332;2023-02-26T14:07:47;1.15;;;1.05;;
13879;SDS011;7010;48.200;16.332;2023-02-26T14:10:23;1.13;;;0.95;;
13879;SDS011;7010;48.200;16.332;2023-02-26T14:13:03;0.75;;;0.75;;
13879;SDS011;7010;48.200;16.332;2023-02-26T14:15:52;2.40;;;1.35;;
13879;SDS011;7010;48.200;16.332;2023-02-26T14:18:33;1.35;;;1.25;;
13879;SDS011;7010;48.200;16.332;2023-02-26T14:24:05;1.52;;;1.42;;
13879;SDS011;7010;48.200;16.332;2023-02-26T14:26:43;1.33;;;1.23;;
13879;SDS011;7010;48.200;16.332;2023-02-26T14:29:15;2.33;;;1.60;;
13879;SDS011;7010;48.200;16.332;2023-02-26T14:32:04;3.72;;;1.98;;
13879;SDS011;7010;48.200;16.332;2023-02-26T14:34:46;2.83;;;1.98;;
13879;SDS011;7010;48.200;16.332;2023-02-26T14:37:21;1.60;;;1.50;;
13879;SDS011;7010;48.200;16.332;2023-02-26T14:39:54;2.13;;;1.80;;
13879;SDS011;7010;48.200;16.332;2023-02-26T14:42:29;0.95;;;0.95;;
13879;SDS011;7010;48.200;16.332;2023-02-26T14:45:05;1.80;;;1.67;;
13879;SDS011;7010;48.200;16.332;2023-02-26T14:47:46;2.50;;;1.70;;
13879;SDS011;7010;48.200;16.332;2023-02-26T14:50:16;1.48;;;1.38;;
13879;SDS011;7010;48.200;16.332;2023-02-26T14:52:57;1.02;;;1.02;;
13879;SDS011;7010;48.200;16.332;2023-02-26T14:55:50;1.15;;;1.08;;
13879;SDS011;7010;48.200;16.332;2023-02-26T14:58:31;1.50;;;1.40;;
13879;SDS011;7010;48.200;16.332;2023-02-26T15:01:19;1.92;;;1.50;;
13879;SDS011;7010;48.200;16.332;2023-02-26T15:04:14;1.73;;;1.63;;
13879;SDS011;7010;48.200;16.332;2023-02-26T15:06:58;1.63;;;1.52;;
13879;SDS011;7010;48.200;16.332;2023-02-26T15:09:39;1.60;;;1.50;;
13879;SDS011;7010;48.200;16.332;2023-02-26T15:12:22;2.83;;;1.42;;
13879;SDS011;7010;48.200;16.332;2023-02-26T15:15:08;1.85;;;1.48;;
13879;SDS011;7010;48.200;16.332;2023-02-26T15:17:50;1.35;;;1.25;;
13879;SDS011;7010;48.200;16.332;2023-02-26T15:20:32;1.00;;;1.00;;
13879;SDS011;7010;48.200;16.332;2023-02-26T15:23:19;1.98;;;1.40;;
13879;SDS011;7010;48.200;16.332;2023-02-26T15:26:00;1.27;;;1.17;;
13879;SDS011;7010;48.200;16.332;2023-02-26T15:28:31;0.88;;;0.88;;
13879;SDS011;7010;48.200;16.332;2023-02-26T15:31:03;2.60;;;1.58;;
13879;SDS011;7010;48.200;16.332;2023-02-26T15:33:35;1.25;;;1.15;;
13879;SDS011;7010;48.200;16.332;2023-02-26T15:36:07;1.00;;;1.00;;
13879;SDS011;7010;48.200;16.332;2023-02-26T15:38:40;0.98;;;0.98;;
13879;SDS011;7010;48.200;16.332;2023-02-26T15:41:09;1.10;;;1.08;;
13879;SDS011;7010;48.200;16.332;2023-02-26T15:43:39;1.13;;;1.08;;
13879;SDS011;7010;48.200;16.332;2023-02-26T15:46:11;1.50;;;1.33;;
13879;SDS011;7010;48.200;16.332;2023-02-26T15:48:40;1.90;;;1.50;;
13879;SDS011;7010;48.200;16.332;2023-02-26T15:51:12;1.98;;;1.67;;